SLJE/SJS METAR and TAF weather

Enter ICAO airport designator
Station Type Date Time Source
SLJE METAR 2019/10/15 19:00 UTC NOAA

SLJE 151900Z 18005KT 9999 BKN070 27/17 Q1017


Station Type Date Time Source
SLJE Decoded METAR 2019/10/15 19:00 UTC NOAA

San Jose De Chiquitos, Bolivia (SLJE) 17-48S 060-44W
Oct 15, 2019 - 03:00 PM EDT / 2019.10.15 1900 UTC
Wind: from the S (180 degrees) at 6 MPH (5 KT):0
Visibility: greater than 7 mile(s):0
Sky conditions: mostly cloudy
Temperature: 80 F (27 C)
Dew Point: 62 F (17 C)
Relative Humidity: 54%
Pressure (altimeter): 30.03 in. Hg (1017 hPa)
ob: SLJE 151900Z 18005KT 9999 BKN070 27/17 Q1017
cycle: 19

Station Type Date Time Source
SLJE TAF 2009/01/07 11:00 UTC NOAA

METAR SLJE 071100Z 00000KT 9999 SKC 21/18 Q1014

Example: see airport list